createdAt,value
2023-07-08T00:05:57.278Z,100117.33
2023-07-08T00:16:00.438Z,100114.14
2023-07-08T00:26:05.330Z,100112.40
2023-07-08T00:36:13.776Z,100116.89
2023-07-08T00:46:31.477Z,100114.31
2023-07-08T00:56:40.238Z,100107.69
2023-07-08T01:06:47.887Z,100108.91
2023-07-08T01:16:52.038Z,100112.46
2023-07-08T01:26:55.545Z,100099.45
2023-07-08T01:37:00.016Z,100095.29
2023-07-08T01:47:09.275Z,100090.75
2023-07-08T01:57:12.306Z,100087.14
2023-07-08T02:07:15.365Z,100084.58
2023-07-08T02:17:18.327Z,100084.77
2023-07-08T02:27:21.249Z,100082.17
2023-07-08T02:37:24.317Z,100075.95
2023-07-08T02:47:27.482Z,100073.80
2023-07-08T02:57:30.842Z,100078.27
2023-07-08T03:07:33.961Z,100085.67
2023-07-08T03:17:36.930Z,100077.30
2023-07-08T03:27:40.138Z,100081.19
2023-07-08T03:37:43.332Z,100086.25
2023-07-08T03:47:46.413Z,100087.39
2023-07-08T03:57:50.266Z,100092.60
2023-07-08T04:07:54.068Z,100090.73
2023-07-08T04:17:57.730Z,100084.48
2023-07-08T04:28:00.703Z,100080.48
2023-07-08T04:38:09.724Z,100071.15
2023-07-08T04:48:15.746Z,100070.64
2023-07-08T04:58:18.899Z,100073.88
2023-07-08T05:08:21.861Z,100065.63
2023-07-08T05:18:24.873Z,100061.64
2023-07-08T05:28:28.131Z,100049.54
2023-07-08T05:38:31.376Z,100046.41
2023-07-08T05:48:34.420Z,100039.55
2023-07-08T05:58:37.397Z,100031.39
2023-07-08T06:08:40.453Z,100021.27
2023-07-08T06:18:43.359Z,100021.83
2023-07-08T06:28:46.376Z,100020.88
2023-07-08T06:38:49.350Z,100028.52
2023-07-08T06:48:54.151Z,100020.95
2023-07-08T06:58:57.264Z,100023.70
2023-07-08T07:09:00.323Z,100024.12
2023-07-08T07:19:03.309Z,100019.38
2023-07-08T07:29:06.748Z,100020.52
2023-07-08T07:39:09.906Z,100016.61
2023-07-08T07:49:12.838Z,100011.69
2023-07-08T07:59:15.964Z,100008.36
2023-07-08T08:09:18.963Z,100005.38
2023-07-08T08:19:23.041Z,100006.17
2023-07-08T08:29:26.050Z,100011.27
2023-07-08T08:39:30.535Z,100015.54
2023-07-08T08:49:42.744Z,100015.96
2023-07-08T08:59:54.270Z,100019.45
2023-07-08T09:10:05.376Z,100018.42
2023-07-08T09:20:21.657Z,100017.42
2023-07-08T09:30:26.846Z,100015.35
2023-07-08T09:40:32.922Z,100007.42
2023-07-08T09:50:37.479Z,99997.65
2023-07-08T10:00:42.516Z,99988.40
2023-07-08T10:10:47.787Z,99986.13
2023-07-08T10:21:00.397Z,99978.08
2023-07-08T10:31:27.848Z,99975.02
2023-07-08T10:41:44.489Z,99965.92
2023-07-08T10:51:54.745Z,99957.77
2023-07-08T11:02:16.310Z,99951.90
2023-07-08T11:12:27.990Z,99951.80
2023-07-08T11:22:32.955Z,99944.01
2023-07-08T11:32:37.245Z,99937.39
2023-07-08T11:42:46.037Z,99933.17
2023-07-08T11:52:54.268Z,99919.98
2023-07-08T12:02:59.365Z,99909.02
2023-07-08T12:13:03.322Z,99908.92
2023-07-08T12:23:13.416Z,99904.85
2023-07-08T12:33:19.394Z,99897.91
2023-07-08T12:43:22.543Z,99884.48
2023-07-08T12:53:25.433Z,99887.27
2023-07-08T13:03:31.008Z,99873.72
2023-07-08T13:13:37.411Z,99862.29
2023-07-08T13:23:41.250Z,99851.02
2023-07-08T13:33:48.878Z,99852.28
2023-07-08T13:43:52.273Z,99846.84
2023-07-08T13:54:00.612Z,99841.34
2023-07-08T14:04:05.141Z,99834.73
2023-07-08T14:14:09.697Z,99825.53
2023-07-08T14:24:14.813Z,99818.98
2023-07-08T14:34:22.793Z,99815.88
2023-07-08T14:44:31.375Z,99808.20
2023-07-08T14:54:34.732Z,99802.04
2023-07-08T15:04:37.681Z,99791.10
2023-07-08T15:14:41.265Z,99785.92
2023-07-08T15:24:44.440Z,99781.13
2023-07-08T15:34:47.648Z,99773.68
2023-07-08T15:44:52.636Z,99769.39
2023-07-08T15:54:55.581Z,99770.62
2023-07-08T16:04:58.981Z,99771.34
2023-07-08T16:15:02.203Z,99766.93
2023-07-08T16:25:06.913Z,99767.02
2023-07-08T16:35:11.452Z,99762.30
2023-07-08T16:45:16.905Z,99759.96
2023-07-08T16:55:21.952Z,99757.55
2023-07-08T17:05:29.123Z,99757.02
2023-07-08T17:15:32.721Z,99754.00
2023-07-08T17:25:35.696Z,99750.18
2023-07-08T17:35:38.599Z,99750.66
2023-07-08T17:45:45.925Z,99752.23
2023-07-08T17:55:51.918Z,99755.52
2023-07-08T18:05:54.846Z,99754.11
2023-07-08T18:15:57.761Z,99757.36
2023-07-08T18:26:01.126Z,99759.30
2023-07-08T18:36:05.961Z,99761.46
2023-07-08T18:46:11.629Z,99763.58
2023-07-08T18:56:17.074Z,99776.34
2023-07-08T19:06:20.577Z,99784.08
2023-07-08T19:16:23.920Z,99800.66
2023-07-08T19:26:27.830Z,99814.30
2023-07-08T19:36:32.751Z,99820.02
2023-07-08T19:46:35.672Z,99821.16
2023-07-08T19:56:39.051Z,99822.46
2023-07-08T20:06:43.490Z,99824.83
2023-07-08T20:16:48.360Z,99820.83
2023-07-08T20:26:51.674Z,99827.10
2023-07-08T20:36:54.833Z,99830.29
2023-07-08T20:46:57.922Z,99832.63
2023-07-08T20:57:01.106Z,99834.42
2023-07-08T21:07:05.341Z,99834.23
2023-07-08T21:17:15.780Z,99839.08
2023-07-08T21:27:22.902Z,99844.10
2023-07-08T21:37:26.062Z,99848.70
2023-07-08T21:47:29.409Z,99857.88
2023-07-08T21:57:32.494Z,99855.11
2023-07-08T22:07:35.643Z,99856.46
2023-07-08T22:17:38.687Z,99854.80
2023-07-08T22:27:42.127Z,99852.34
2023-07-08T22:37:45.061Z,99851.25
2023-07-08T22:47:49.009Z,99854.65
2023-07-08T22:57:52.393Z,99858.25
2023-07-08T23:07:56.320Z,99857.63
2023-07-08T23:17:59.326Z,99861.59
2023-07-08T23:28:02.721Z,99866.83
2023-07-08T23:38:05.735Z,99860.21
2023-07-08T23:48:13.352Z,99850.67
2023-07-08T23:58:21.137Z,99856.40
